createdAt,value
2019-05-15T00:01:28.570Z,2.30
2019-05-15T00:03:58.547Z,2.20
2019-05-15T00:06:28.546Z,2.10
2019-05-15T00:08:58.820Z,1.87
2019-05-15T00:11:28.741Z,2.63
2019-05-15T00:13:58.784Z,2.20
2019-05-15T00:16:28.828Z,2.50
2019-05-15T00:18:58.900Z,2.12
2019-05-15T00:21:28.633Z,2.50
2019-05-15T00:23:58.506Z,3.35
2019-05-15T00:26:26.313Z,2.80
2019-05-15T00:29:07.626Z,2.65
2019-05-15T00:31:24.472Z,2.55
2019-05-15T00:33:52.701Z,2.87
2019-05-15T00:36:20.911Z,2.95
2019-05-15T00:38:49.101Z,2.72
2019-05-15T00:41:18.493Z,2.92
2019-05-15T00:43:49.205Z,2.83
2019-05-15T00:46:18.333Z,2.70
2019-05-15T00:48:48.765Z,2.98
2019-05-15T00:51:19.280Z,2.98
2019-05-15T00:53:48.333Z,3.05
2019-05-15T00:56:19.003Z,3.15
2019-05-15T00:58:48.207Z,2.95
2019-05-15T01:01:19.064Z,2.77
2019-05-15T01:03:46.416Z,2.70
2019-05-15T01:06:14.615Z,2.70
2019-05-15T01:08:42.837Z,2.70
2019-05-15T01:11:11.048Z,2.85
2019-05-15T01:13:39.256Z,2.47
2019-05-15T01:16:09.104Z,2.67
2019-05-15T01:18:38.498Z,2.45
2019-05-15T01:21:08.367Z,2.58
2019-05-15T01:23:38.819Z,2.85
2019-05-15T01:26:08.280Z,2.50
2019-05-15T01:28:38.396Z,3.00
2019-05-15T01:31:08.535Z,2.60
2019-05-15T01:33:38.807Z,2.67
2019-05-15T01:36:08.513Z,2.87
2019-05-15T01:38:38.634Z,3.20
2019-05-15T01:41:06.410Z,2.75
2019-05-15T01:43:34.617Z,2.25
2019-05-15T01:46:02.840Z,2.70
2019-05-15T01:48:31.055Z,2.87
2019-05-15T01:50:59.258Z,2.42
2019-05-15T01:53:29.104Z,2.22
2019-05-15T01:55:58.884Z,2.60
2019-05-15T01:58:28.782Z,2.52
2019-05-15T02:00:58.992Z,2.27
2019-05-15T02:03:28.926Z,2.12
2019-05-15T02:05:58.680Z,2.40
2019-05-15T02:08:28.670Z,2.17
2019-05-15T02:10:58.829Z,2.47
2019-05-15T02:13:28.230Z,2.40
2019-05-15T02:15:58.752Z,2.30
2019-05-15T02:18:28.547Z,2.42
2019-05-15T02:20:58.689Z,3.58
2019-05-15T02:23:28.074Z,2.75
2019-05-15T02:25:58.727Z,3.00
2019-05-15T02:28:28.731Z,3.08
2019-05-15T02:30:58.840Z,2.83
2019-05-15T02:33:29.788Z,2.85
2019-05-15T02:35:56.293Z,3.33
2019-05-15T02:38:24.499Z,3.02
2019-05-15T02:40:52.720Z,3.10
2019-05-15T02:43:20.929Z,3.20
2019-05-15T02:45:50.910Z,2.80
2019-05-15T02:48:19.918Z,2.83
2019-05-15T02:50:50.115Z,2.90
2019-05-15T02:53:19.066Z,3.20
2019-05-15T02:55:49.492Z,2.65
2019-05-15T02:58:21.353Z,3.20
2019-05-15T03:00:52.893Z,2.65
2019-05-15T03:03:20.008Z,3.22
2019-05-15T03:05:49.849Z,3.20
2019-05-15T03:08:19.579Z,2.85
2019-05-15T03:10:49.759Z,2.90
2019-05-15T03:13:18.914Z,2.75
2019-05-15T03:15:48.935Z,2.75
2019-05-15T03:18:19.489Z,2.92
2019-05-15T03:20:50.007Z,2.87
2019-05-15T03:23:19.667Z,2.75
2019-05-15T03:25:49.095Z,2.65
2019-05-15T03:28:19.132Z,2.95
2019-05-15T03:33:25.330Z,3.27
2019-05-15T03:35:46.411Z,2.80
2019-05-15T03:38:14.625Z,2.80
2019-05-15T03:40:42.822Z,2.90
2019-05-15T03:43:11.051Z,3.20
2019-05-15T03:45:40.360Z,3.02
2019-05-15T03:48:09.557Z,3.40
2019-05-15T03:50:40.269Z,3.10
2019-05-15T03:53:10.102Z,3.20
2019-05-15T03:55:40.393Z,3.17
2019-05-15T03:58:09.923Z,3.20
2019-05-15T04:00:39.465Z,3.30
2019-05-15T04:03:14.160Z,3.30
2019-05-15T04:05:42.386Z,3.10
2019-05-15T04:08:11.351Z,3.05
2019-05-15T04:10:40.353Z,3.60
2019-05-15T04:13:09.651Z,3.72
2019-05-15T04:15:39.602Z,3.72
2019-05-15T04:18:09.334Z,3.10
2019-05-15T04:20:40.560Z,3.87
2019-05-15T04:23:10.054Z,4.97
2019-05-15T04:25:39.124Z,4.15
2019-05-15T04:28:09.628Z,4.20
2019-05-15T04:30:39.202Z,4.17
2019-05-15T04:33:09.359Z,4.10
2019-05-15T04:35:39.902Z,3.90
2019-05-15T04:38:09.403Z,4.05
2019-05-15T04:40:39.610Z,3.87
2019-05-15T04:43:10.372Z,4.40
2019-05-15T04:45:39.158Z,4.62
2019-05-15T04:48:10.152Z,3.45
2019-05-15T04:50:40.003Z,5.12
2019-05-15T04:53:10.757Z,4.33
2019-05-15T04:55:40.436Z,4.00
2019-05-15T04:58:09.680Z,4.08
2019-05-15T05:00:51.482Z,4.10
2019-05-15T05:03:20.502Z,4.17
2019-05-15T05:05:50.101Z,3.83
2019-05-15T05:08:19.973Z,4.62
2019-05-15T05:10:48.955Z,3.83
2019-05-15T05:13:19.819Z,3.87
2019-05-15T05:15:50.059Z,3.45
2019-05-15T05:18:18.852Z,3.67
2019-05-15T05:20:48.485Z,3.37
2019-05-15T05:23:19.274Z,3.22
2019-05-15T05:25:49.158Z,2.80
2019-05-15T05:28:18.134Z,3.05
2019-05-15T05:30:48.264Z,2.75
2019-05-15T05:33:18.190Z,2.90
2019-05-15T05:35:48.546Z,3.30
2019-05-15T05:38:19.121Z,2.80
2019-05-15T05:40:49.571Z,2.85
2019-05-15T05:43:18.415Z,2.87
2019-05-15T05:45:49.102Z,2.50
2019-05-15T05:48:18.697Z,2.55
2019-05-15T05:50:49.150Z,2.55
2019-05-15T05:53:16.845Z,2.42
2019-05-15T05:55:45.062Z,2.52
2019-05-15T05:58:13.286Z,2.40
2019-05-15T06:00:44.093Z,2.40
2019-05-15T06:03:12.322Z,2.40
2019-05-15T06:05:40.523Z,2.20
2019-05-15T06:08:08.725Z,2.37
2019-05-15T06:10:38.642Z,2.60
2019-05-15T06:13:08.762Z,1.95
2019-05-15T06:15:37.976Z,1.72
2019-05-15T06:18:08.365Z,1.90
2019-05-15T06:20:36.386Z,1.60
2019-05-15T06:23:04.566Z,1.60
2019-05-15T06:25:32.786Z,1.82
2019-05-15T06:28:01.033Z,1.80
2019-05-15T06:30:30.754Z,1.47
2019-05-15T06:33:08.319Z,2.25
2019-05-15T06:35:31.276Z,1.85
2019-05-15T06:37:59.274Z,1.72
2019-05-15T06:40:28.922Z,1.50
2019-05-15T06:42:59.391Z,1.40
2019-05-15T06:45:28.505Z,1.62
2019-05-15T06:47:58.249Z,1.40
2019-05-15T06:50:32.068Z,1.17
2019-05-15T06:53:00.299Z,1.02
2019-05-15T06:55:28.934Z,1.30
2019-05-15T06:57:58.417Z,1.30
2019-05-15T07:00:28.361Z,1.17
2019-05-15T07:02:58.354Z,1.20
2019-05-15T07:05:29.327Z,1.30
2019-05-15T07:07:58.518Z,1.25
2019-05-15T07:10:28.790Z,0.95
2019-05-15T07:12:58.534Z,1.17
2019-05-15T07:15:27.852Z,1.20
2019-05-15T07:17:58.024Z,1.22
2019-05-15T07:20:28.461Z,1.20
2019-05-15T07:22:58.442Z,1.15
2019-05-15T07:25:26.096Z,1.22
2019-05-15T07:27:54.377Z,1.02
2019-05-15T07:30:24.264Z,1.47
2019-05-15T07:32:52.505Z,1.05
2019-05-15T07:35:23.912Z,0.95
2019-05-15T07:37:50.731Z,1.07
2019-05-15T07:40:19.477Z,1.10
2019-05-15T07:42:49.063Z,1.00
2019-05-15T07:45:19.819Z,1.40
2019-05-15T07:47:48.936Z,1.10
2019-05-15T07:50:19.627Z,1.10
2019-05-15T07:52:48.595Z,1.10
2019-05-15T07:55:18.523Z,0.90
2019-05-15T07:57:49.442Z,1.12
2019-05-15T08:00:18.813Z,1.20
2019-05-15T08:02:48.227Z,0.90
2019-05-15T08:05:18.278Z,1.35
2019-05-15T08:07:48.756Z,0.98
2019-05-15T08:10:18.262Z,0.90
2019-05-15T08:12:49.274Z,0.82
2019-05-15T08:15:18.546Z,0.98
2019-05-15T08:18:00.332Z,1.02
2019-05-15T08:20:18.347Z,1.00
2019-05-15T08:22:48.693Z,0.95
2019-05-15T08:25:30.548Z,1.02
2019-05-15T08:27:48.619Z,1.15
2019-05-15T08:30:18.366Z,1.10
2019-05-15T08:32:50.771Z,1.30
2019-05-15T08:35:18.897Z,1.20
2019-05-15T08:37:48.881Z,0.85
2019-05-15T08:40:17.901Z,1.12
2019-05-15T08:42:54.675Z,1.70
2019-05-15T08:45:18.830Z,1.20
2019-05-15T08:47:49.297Z,1.05
2019-05-15T08:50:18.262Z,1.10
2019-05-15T08:52:48.688Z,1.30
2019-05-15T08:55:16.598Z,1.00
2019-05-15T08:57:44.821Z,1.07
2019-05-15T09:00:13.034Z,1.22
2019-05-15T09:02:41.270Z,1.07
2019-05-15T09:05:09.463Z,1.12
2019-05-15T09:07:38.602Z,1.20
2019-05-15T09:10:09.679Z,1.10
2019-05-15T09:12:38.820Z,1.27
2019-05-15T09:15:09.151Z,1.00
2019-05-15T09:17:39.878Z,1.10
2019-05-15T09:20:08.161Z,1.05
2019-05-15T09:22:38.223Z,0.83
2019-05-15T09:27:38.340Z,0.90
2019-05-15T09:30:10.100Z,0.90
2019-05-15T09:32:39.290Z,1.25
2019-05-15T09:35:08.421Z,1.00
2019-05-15T09:37:38.522Z,0.85
2019-05-15T09:40:08.809Z,0.82
2019-05-15T09:42:38.621Z,1.17
2019-05-15T09:45:08.942Z,1.25
2019-05-15T09:47:39.571Z,0.90
2019-05-15T09:50:08.480Z,0.80
2019-05-15T09:52:38.853Z,0.90
2019-05-15T09:55:08.591Z,0.85
2019-05-15T09:57:38.665Z,0.90
2019-05-15T10:00:09.330Z,0.88
2019-05-15T10:02:39.338Z,0.90
2019-05-15T10:05:10.977Z,1.10
2019-05-15T10:07:40.116Z,0.78
2019-05-15T10:10:08.750Z,1.00
2019-05-15T10:12:38.699Z,1.02
2019-05-15T10:15:11.200Z,1.00
2019-05-15T10:17:37.579Z,0.70
2019-05-15T10:20:08.946Z,0.90
2019-05-15T10:22:36.472Z,1.00
2019-05-15T10:25:08.289Z,0.90
2019-05-15T10:27:39.575Z,0.85
2019-05-15T10:30:09.099Z,1.07
2019-05-15T10:35:24.054Z,0.95
2019-05-15T10:37:38.968Z,1.10
2019-05-15T10:40:09.770Z,0.90
2019-05-15T10:42:39.704Z,1.10
2019-05-15T10:45:08.554Z,1.10
2019-05-15T10:47:38.869Z,1.10
2019-05-15T10:50:09.654Z,0.95
2019-05-15T10:52:38.341Z,1.00
2019-05-15T10:55:09.138Z,1.00
2019-05-15T10:57:43.004Z,1.00
2019-05-15T11:00:07.965Z,1.10
2019-05-15T11:02:39.115Z,0.90
2019-05-15T11:05:09.353Z,1.22
2019-05-15T11:07:39.441Z,1.10
2019-05-15T11:10:08.602Z,1.25
2019-05-15T11:12:37.606Z,1.00
2019-05-15T11:15:10.891Z,0.80
2019-05-15T11:17:38.562Z,1.00
2019-05-15T11:20:08.351Z,1.10
2019-05-15T11:22:42.323Z,1.45
2019-05-15T11:25:09.954Z,1.32
2019-05-15T11:27:39.009Z,1.15
2019-05-15T11:30:07.924Z,1.42
2019-05-15T11:32:38.803Z,1.40
2019-05-15T11:35:08.313Z,1.22
2019-05-15T11:37:44.142Z,1.12
2019-05-15T11:40:10.137Z,1.10
2019-05-15T11:42:39.445Z,1.27
2019-05-15T11:45:08.614Z,1.02
2019-05-15T11:47:39.603Z,1.17
2019-05-15T11:50:08.429Z,0.90
2019-05-15T11:52:40.144Z,1.05
2019-05-15T11:55:08.338Z,1.40
2019-05-15T11:57:43.571Z,1.15
2019-05-15T12:00:15.054Z,1.27
2019-05-15T12:05:09.277Z,1.37
2019-05-15T12:07:38.184Z,1.12
2019-05-15T12:10:10.400Z,1.10
2019-05-15T12:12:38.479Z,0.98
2019-05-15T12:15:07.320Z,1.05
2019-05-15T12:17:35.785Z,1.05
2019-05-15T12:20:06.972Z,1.10
2019-05-15T12:22:34.944Z,1.10
2019-05-15T12:25:04.104Z,1.20
2019-05-15T12:27:32.299Z,1.67
2019-05-15T12:30:00.540Z,1.10
2019-05-15T12:32:35.868Z,0.88
2019-05-15T12:35:00.033Z,1.20
2019-05-15T12:37:28.631Z,0.78
2019-05-15T12:59:55.125Z,0.98
2019-05-15T13:02:23.172Z,0.90
2019-05-15T13:04:51.213Z,1.00
2019-05-15T13:07:19.978Z,1.00
2019-05-15T13:09:48.659Z,0.80
2019-05-15T13:12:18.203Z,0.90
2019-05-15T13:14:48.383Z,0.90
2019-05-15T13:17:18.301Z,0.80
2019-05-15T13:19:48.314Z,1.07
2019-05-15T13:22:18.117Z,0.70
2019-05-15T13:24:48.091Z,0.80
2019-05-15T13:27:15.289Z,0.90
2019-05-15T13:29:43.310Z,0.70
2019-05-15T13:32:11.346Z,0.98
2019-05-15T13:34:39.319Z,0.95
2019-05-15T13:37:08.860Z,0.95
2019-05-15T13:39:39.140Z,0.70
2019-05-15T13:42:09.193Z,0.90
2019-05-15T13:44:38.691Z,0.93
2019-05-15T13:47:08.668Z,0.85
2019-05-15T13:49:38.511Z,0.70
2019-05-15T13:52:08.358Z,0.85
2019-05-15T13:54:37.832Z,0.80
2019-05-15T13:57:05.532Z,0.60
2019-05-15T13:59:33.567Z,0.70
2019-05-15T14:02:01.587Z,0.98
2019-05-15T14:04:30.003Z,0.90
2019-05-15T14:06:58.081Z,0.80
2019-05-15T14:09:32.548Z,1.00
2019-05-15T14:11:55.784Z,0.50
2019-05-15T14:14:23.766Z,0.70
2019-05-15T14:16:51.742Z,0.90
2019-05-15T14:19:19.767Z,0.78
2019-05-15T14:21:49.014Z,1.00
2019-05-15T14:24:18.403Z,1.10
2019-05-15T14:26:48.563Z,1.00
2019-05-15T14:29:18.836Z,0.70
2019-05-15T14:31:48.398Z,0.85
2019-05-15T14:34:18.448Z,0.80
2019-05-15T14:36:45.594Z,0.60
2019-05-15T14:39:13.629Z,0.68
2019-05-15T14:41:41.635Z,0.60
2019-05-15T14:44:16.894Z,0.62
2019-05-15T14:46:39.452Z,0.70
2019-05-15T14:49:08.938Z,0.80
2019-05-15T14:51:39.138Z,0.70
2019-05-15T14:54:09.023Z,0.60
2019-05-15T14:56:38.340Z,0.57
2019-05-15T14:59:08.551Z,0.68
2019-05-15T15:01:38.306Z,0.60
2019-05-15T15:04:05.997Z,0.70
2019-05-15T15:06:35.693Z,0.80
2019-05-15T15:09:05.334Z,1.75
2019-05-15T15:11:33.375Z,0.90
2019-05-15T15:14:01.413Z,0.68
2019-05-15T15:16:29.467Z,0.82
2019-05-15T15:18:58.522Z,1.00
2019-05-15T15:21:29.147Z,0.72
2019-05-15T15:23:58.594Z,0.72
2019-05-15T15:26:26.163Z,0.70
2019-05-15T15:28:54.193Z,0.72
2019-05-15T15:31:22.188Z,0.90
2019-05-15T15:33:50.157Z,1.75
2019-05-15T15:36:18.137Z,1.50
2019-05-15T15:38:48.449Z,1.40
2019-05-15T15:41:16.204Z,1.00
2019-05-15T15:43:44.236Z,0.90
2019-05-15T15:46:12.267Z,0.90
2019-05-15T15:48:40.318Z,0.80
2019-05-15T15:51:09.139Z,1.20
2019-05-15T15:53:39.067Z,1.00
2019-05-15T15:56:10.345Z,0.82
2019-05-15T15:58:37.932Z,0.88
2019-05-15T16:01:08.846Z,1.00
2019-05-15T16:03:37.861Z,0.80
2019-05-15T16:06:05.668Z,0.75
2019-05-15T16:08:33.767Z,1.30
2019-05-15T16:11:02.109Z,1.20
2019-05-15T16:13:30.071Z,0.88
2019-05-15T16:15:58.138Z,1.00
2019-05-15T16:18:28.728Z,0.85
2019-05-15T16:20:57.870Z,1.22
2019-05-15T16:23:27.878Z,0.88
2019-05-15T16:25:55.453Z,1.00
2019-05-15T16:28:23.481Z,0.98
2019-05-15T16:30:51.809Z,1.00
2019-05-15T16:33:19.906Z,0.80
2019-05-15T16:35:48.787Z,1.12
2019-05-15T16:38:19.038Z,1.05
2019-05-15T16:40:48.730Z,1.07
2019-05-15T16:43:17.848Z,1.20
2019-05-15T16:45:49.458Z,1.57
2019-05-15T16:48:18.502Z,1.30
2019-05-15T16:50:45.637Z,1.10
2019-05-15T16:53:13.865Z,1.12
2019-05-15T16:55:42.132Z,2.02
2019-05-15T16:58:12.507Z,1.40
2019-05-15T17:00:40.718Z,1.17
2019-05-15T17:03:14.562Z,1.37
2019-05-15T17:05:38.971Z,1.00
2019-05-15T17:08:09.081Z,1.10
2019-05-15T17:10:38.746Z,1.10
2019-05-15T17:13:08.790Z,1.00
2019-05-15T17:15:38.471Z,0.90
2019-05-15T17:18:08.897Z,1.30
2019-05-15T17:20:36.794Z,1.22
2019-05-15T17:23:05.082Z,1.00
2019-05-15T17:25:33.327Z,1.00
2019-05-15T17:28:01.528Z,1.10
2019-05-15T17:30:30.058Z,1.27
2019-05-15T17:32:58.361Z,2.83
2019-05-15T17:35:27.755Z,2.35
2019-05-15T17:37:58.104Z,2.05
2019-05-15T17:40:28.233Z,1.55
2019-05-15T17:42:58.405Z,1.60
2019-05-15T17:45:28.145Z,1.30
2019-05-15T17:47:58.408Z,2.27
2019-05-15T17:50:28.172Z,2.05
2019-05-15T17:52:58.495Z,2.42
2019-05-15T17:55:27.480Z,2.08
2019-05-15T17:57:58.378Z,1.57
2019-05-15T18:00:28.436Z,1.90
2019-05-15T18:02:55.753Z,2.27
2019-05-15T18:05:25.269Z,2.02
2019-05-15T18:07:53.773Z,3.08
2019-05-15T18:10:22.031Z,1.50
2019-05-15T18:12:50.246Z,1.90
2019-05-15T18:15:18.468Z,1.98
2019-05-15T18:17:48.149Z,1.95
2019-05-15T18:20:29.191Z,1.77
2019-05-15T18:22:58.831Z,2.13
2019-05-15T18:25:26.479Z,1.70
2019-05-15T18:27:54.685Z,2.00
2019-05-15T18:30:22.975Z,1.60
2019-05-15T18:32:51.561Z,1.70
2019-05-15T18:35:19.775Z,1.90
2019-05-15T18:37:48.350Z,2.42
2019-05-15T18:40:18.780Z,1.77
2019-05-15T18:42:49.339Z,2.10
2019-05-15T18:45:18.249Z,2.45
2019-05-15T18:47:48.090Z,1.55
2019-05-15T18:50:16.608Z,1.77
2019-05-15T18:52:44.807Z,1.57
2019-05-15T18:55:13.010Z,1.85
2019-05-15T18:57:41.238Z,1.80
2019-05-15T19:00:10.385Z,2.40
2019-05-15T19:02:39.258Z,1.92
2019-05-15T19:05:08.165Z,1.87
2019-05-15T19:07:38.378Z,1.80
2019-05-15T19:10:08.727Z,1.47
2019-05-15T19:12:37.935Z,1.40
2019-05-15T19:15:09.211Z,0.98
2019-05-15T19:17:38.860Z,1.27
2019-05-15T19:20:08.423Z,1.37
2019-05-15T19:22:40.686Z,6.85
2019-05-15T19:25:08.859Z,6.10
2019-05-15T19:27:39.354Z,1.80
2019-05-15T19:30:08.460Z,1.20
2019-05-15T19:32:38.764Z,1.30
2019-05-15T19:35:08.033Z,1.00
2019-05-15T19:37:38.477Z,1.70
2019-05-15T19:40:06.854Z,1.62
2019-05-15T19:42:35.085Z,1.35
2019-05-15T19:45:03.864Z,1.40
2019-05-15T19:47:32.072Z,1.15
2019-05-15T19:50:00.293Z,1.40
2019-05-15T19:52:28.510Z,1.55
2019-05-15T19:54:57.769Z,1.25
2019-05-15T19:57:27.987Z,1.60
2019-05-15T19:59:58.167Z,1.50
2019-05-15T20:02:28.428Z,1.60
2019-05-15T20:04:58.190Z,1.55
2019-05-15T20:07:28.592Z,1.67
2019-05-15T20:09:58.303Z,1.60
2019-05-15T20:12:27.939Z,1.65
2019-05-15T20:14:58.329Z,1.17
2019-05-15T20:17:27.734Z,1.12
2019-05-15T20:19:58.096Z,1.40
2019-05-15T20:22:28.380Z,1.27
2019-05-15T20:24:58.747Z,1.00
2019-05-15T20:27:28.217Z,1.10
2019-05-15T20:29:56.547Z,1.30
2019-05-15T20:32:24.766Z,1.30
2019-05-15T20:34:52.996Z,1.20
2019-05-15T20:37:21.222Z,1.22
2019-05-15T20:39:49.502Z,1.00
2019-05-15T20:42:18.143Z,1.25
2019-05-15T20:44:48.634Z,1.00
2019-05-15T20:47:18.797Z,1.12
2019-05-15T20:49:48.509Z,1.00
2019-05-15T20:52:20.881Z,1.27
2019-05-15T20:54:48.073Z,1.20
2019-05-15T20:57:16.548Z,1.30
2019-05-15T20:59:44.917Z,1.72
2019-05-15T21:02:13.637Z,1.10
2019-05-15T21:04:41.882Z,1.20
2019-05-15T21:07:10.414Z,1.10
2019-05-15T21:09:39.412Z,2.00
2019-05-15T21:12:09.885Z,1.30
2019-05-15T21:14:40.027Z,2.17
2019-05-15T21:17:08.240Z,1.60
2019-05-15T21:19:38.552Z,1.70
2019-05-15T21:22:08.377Z,1.67
2019-05-15T21:24:37.830Z,1.60
2019-05-15T21:27:06.219Z,3.05
2019-05-15T21:29:34.467Z,2.00
2019-05-15T21:32:02.715Z,2.55
2019-05-15T21:34:37.581Z,1.85
2019-05-15T21:37:00.901Z,1.77
2019-05-15T21:39:30.198Z,1.82
2019-05-15T21:41:58.750Z,1.70
2019-05-15T21:44:29.205Z,1.70
2019-05-15T21:46:58.739Z,1.80
2019-05-15T21:49:28.135Z,1.30
2019-05-15T21:51:58.336Z,1.45
2019-05-15T21:54:28.163Z,1.40
2019-05-15T21:57:11.112Z,1.45
2019-05-15T21:59:27.843Z,1.45
2019-05-15T22:01:58.770Z,1.30
2019-05-15T22:04:28.141Z,1.40
2019-05-15T22:06:58.478Z,1.37
2019-05-15T22:09:26.171Z,1.45
2019-05-15T22:11:57.380Z,1.50
2019-05-15T22:14:24.789Z,1.40
2019-05-15T22:16:53.015Z,1.22
2019-05-15T22:19:21.241Z,1.57
2019-05-15T22:21:49.458Z,1.50
2019-05-15T22:24:18.187Z,1.37
2019-05-15T22:26:48.182Z,1.32
2019-05-15T22:29:17.786Z,1.50
2019-05-15T22:31:48.635Z,1.20
2019-05-15T22:34:18.381Z,1.50
2019-05-15T22:36:50.567Z,1.45
2019-05-15T22:39:18.784Z,1.50
2019-05-15T22:41:47.912Z,1.30
2019-05-15T22:44:18.990Z,1.42
2019-05-15T22:46:48.377Z,1.50
2019-05-15T22:49:18.288Z,1.80
2019-05-15T22:51:48.543Z,2.20
2019-05-15T22:54:16.254Z,1.65
2019-05-15T22:56:44.468Z,1.60
2019-05-15T22:59:12.706Z,1.62
2019-05-15T23:01:41.001Z,1.60
2019-05-15T23:04:09.235Z,1.70
2019-05-15T23:06:38.868Z,1.40
2019-05-15T23:09:07.370Z,1.70
2019-05-15T23:11:35.573Z,1.57
2019-05-15T23:14:03.792Z,1.60
2019-05-15T23:16:32.015Z,1.45
2019-05-15T23:19:00.493Z,1.42
2019-05-15T23:21:28.949Z,1.60
2019-05-15T23:23:57.197Z,1.60
2019-05-15T23:26:25.416Z,1.60
2019-05-15T23:28:53.618Z,1.70
2019-05-15T23:31:21.857Z,1.70
2019-05-15T23:33:50.057Z,1.60
2019-05-15T23:36:18.267Z,1.60
2019-05-15T23:38:47.967Z,1.80
2019-05-15T23:41:18.700Z,1.65
2019-05-15T23:43:48.239Z,1.70
2019-05-15T23:46:18.394Z,1.77
2019-05-15T23:48:48.524Z,1.62
2019-05-15T23:51:18.710Z,1.52
2019-05-15T23:53:48.339Z,1.50
2019-05-15T23:56:19.096Z,2.02
2019-05-15T23:58:46.375Z,1.45
